aviador You're here:

KHDN Decoded Metar

HAYDEN/YAMPA in CO, USA
Report Time2018-05-27 00:56:00
UTC Time2018-05-27 01:17:33
Flight Rules vfr VFR
Wind210° at 10 kt
W.Decomp.*RWY 28: 1.7 kt HW 9.8 kt LCW
W.Rank210° ranks 21
Current wind is above 210° avg. (6.6)
Visibility9999 m
Phenomena:N/A
Clouds:N/A
Expected CloudBase > 10,800 ft AGL from Temp-Dew spread
CeilingNone
Temp26°C (ISA +24)
Dew Point-1°C (17% RH)
AAT20.3°C
QNH1011 hPa
Density Alt9,475 ft
Elevation6,601 ft
Report Wrong Elevation
Raw Report
KHDN 270056Z AUTO 21010KT 10SM CLR 26/M01 A2985 RMK AO2 SLP030
T02611011=

Extra information for KHDN:More info

Metar Taf Metar & Taf Last 4 Metars F.Rules Stats Wind Profile Meteogram Temp Stats Airport Information Weather charts Add Link Nearby VenuesMetar ALERT Operation Metar Decoded Social comments

AIRNAV info for KHDN